Aérodrome :
LOGIN :

S'inscrire | Disclaimer

   EN    FR    IT 

 










Légende :    VFR   VFR Marginal   IFR   IFR Intensif   IFR Très Intensif
Visi : 
Plafond : 
>= 8 km
>= 3000ft
5 à 8 km
1000 à 3000 ft
1500m à 5 km
500 à 1000 ft
800 à 1500m
200 à 500 ft
< 800m
< 200 ft
Symboles :   Orages  Brouillard  Fortes neiges  Fortes précipitations  Vent > 20 kt
SIGMETs :   Divers  Orages  Givrage  Turbulence  Onde Orograph.  Cendres Volcan.






- Altitude de l'aérodrome : 1273 ft
- Code IATA : LJU


LJLJ - Ljubljana

DERNIER METAR :
  • 121230Z VRB01KT 9999 BKN045 M01/M03 Q1005 NOSIG

METARs EXPIRÉS :
  • 121200Z 22003KT 180V250 9999 BKN045 M01/M04 Q1005 NOSIG
  • 121130Z 08002KT 9999 FEW028 OVC045 M01/M03 Q1006 NOSIG
  • 121100Z 08002KT 9999 FEW028 OVC040 M02/M03 Q1006 NOSIG
  • 121030Z VRB01KT 9999 FEW028 OVC040 M02/M03 Q1007 NOSIG
  • 121000Z 08002KT 9999 FEW026 OVC045 M02/M04 Q1007 NOSIG

TAF TAF LJLJ
Valide du 12 à 12h jusqu'au 13 à 12h UTC


121100Z 1212/1312 10004KT 9999 BKN027 OVC040
TEMPO 1212/1217 SCT027 OVC040
TEMPO 1215/1311 7000 -SN BKN017 OVC030
TEMPO 1218/1303 4000 SN OVC012
BECMG 1218/1220 30004KT
BECMG 1311/1312 4000 RASN BKN017 OVC030



MET'MAP, la Météo Aéronautique d'un coup d'oeil ! - Copyright ORBIFLY Décembre 2007 - Disclaimer

ORBIFLY MET'MAP TEAM :

Programmation & Développement : Alexandra Zaïnal
Sur une idée originale de : Baudouin d'Aumeries
Assistance à la programmation : Marc-Olivier Méhu
Soutien technique & logistique : Manuel Goepfert

Contact : metmap@orbifly.com




SOURCES & CREDITS :

   NOAA